createdAt,value
2023-01-01T00:00:02.076Z,9.38
2023-01-01T00:02:37.428Z,9.30
2023-01-01T00:05:05.656Z,9.45
2023-01-01T00:07:33.096Z,10.50
2023-01-01T00:10:19.242Z,9.57
2023-01-01T00:12:46.325Z,9.38
2023-01-01T00:15:13.530Z,7.90
2023-01-01T00:17:40.656Z,10.05
2023-01-01T00:20:08.165Z,9.65
2023-01-01T00:22:54.068Z,6.70
2023-01-01T00:25:22.522Z,7.03
2023-01-01T00:27:49.821Z,6.03
2023-01-01T00:30:16.927Z,7.00
2023-01-01T00:32:54.413Z,6.93
2023-01-01T00:35:23.067Z,7.03
2023-01-01T00:37:50.188Z,8.10
2023-01-01T00:40:18.627Z,6.40
2023-01-01T00:42:45.771Z,8.15
2023-01-01T00:45:18.837Z,7.35
2023-01-01T00:47:48.544Z,7.82
2023-01-01T00:50:15.752Z,6.30
2023-01-01T00:52:42.903Z,6.82
2023-01-01T00:55:10.360Z,6.60
2023-01-01T00:57:37.504Z,6.05
2023-01-01T01:00:05.529Z,5.25
2023-01-01T01:02:32.869Z,5.53
2023-01-01T01:05:01.252Z,5.43
2023-01-01T01:07:28.352Z,5.03
2023-01-01T01:09:55.442Z,4.82
2023-01-01T01:12:22.551Z,4.13
2023-01-01T01:14:49.623Z,4.22
2023-01-01T01:17:16.763Z,4.00
2023-01-01T01:19:43.879Z,3.90
2023-01-01T01:22:11.028Z,4.57
2023-01-01T01:24:38.106Z,3.85
2023-01-01T01:27:05.234Z,4.00
2023-01-01T01:29:32.396Z,2.92
2023-01-01T01:31:59.507Z,3.33
2023-01-01T01:34:28.303Z,3.15
2023-01-01T01:36:55.989Z,2.97
2023-01-01T01:39:23.135Z,2.65
2023-01-01T01:41:50.215Z,2.70
2023-01-01T01:44:49.243Z,2.40
2023-01-01T01:47:16.352Z,2.60
2023-01-01T01:49:45.277Z,2.78
2023-01-01T01:52:12.883Z,2.50
2023-01-01T01:54:40.527Z,2.58
2023-01-01T01:57:09.209Z,2.40
2023-01-01T01:59:38.982Z,2.28
2023-01-01T02:02:10.827Z,2.15
2023-01-01T02:04:38.092Z,2.28
2023-01-01T02:07:05.441Z,2.83
2023-01-01T02:09:32.627Z,2.35
2023-01-01T02:11:59.848Z,2.22
2023-01-01T02:14:26.976Z,2.35
2023-01-01T02:16:57.539Z,2.35
2023-01-01T02:19:39.331Z,2.53
2023-01-01T02:22:09.535Z,2.33
2023-01-01T02:24:42.356Z,2.28
2023-01-01T02:27:21.380Z,2.28
2023-01-01T02:29:53.452Z,2.22
2023-01-01T02:32:24.529Z,2.67
2023-01-01T02:34:58.869Z,2.75
2023-01-01T02:37:28.930Z,2.55
2023-01-01T02:39:57.221Z,2.88
2023-01-01T02:42:25.897Z,2.22
2023-01-01T02:44:55.129Z,2.20
2023-01-01T02:47:22.289Z,2.35
2023-01-01T02:49:54.492Z,2.53
2023-01-01T02:53:02.847Z,2.08
2023-01-01T02:55:37.109Z,2.20
2023-01-01T02:58:39.932Z,2.47
2023-01-01T03:01:13.445Z,2.22
2023-01-01T03:03:47.226Z,2.00
2023-01-01T03:06:24.219Z,2.25
2023-01-01T03:08:51.362Z,1.90
2023-01-01T03:11:19.787Z,1.92
2023-01-01T03:13:50.467Z,1.98
2023-01-01T03:16:17.643Z,1.83
2023-01-01T03:19:13.435Z,1.75
2023-01-01T03:21:46.681Z,1.67
2023-01-01T03:24:17.628Z,1.80
2023-01-01T03:26:45.992Z,1.65
2023-01-01T03:29:13.745Z,1.73
2023-01-01T03:31:43.583Z,1.40
2023-01-01T03:34:14.003Z,1.55
2023-01-01T03:36:43.814Z,1.80
2023-01-01T03:39:18.233Z,1.70
2023-01-01T03:41:48.576Z,1.50
2023-01-01T03:44:22.386Z,1.50
2023-01-01T03:46:49.686Z,1.90
2023-01-01T03:49:17.321Z,1.83
2023-01-01T03:52:03.027Z,1.70
2023-01-01T03:57:06.648Z,1.70
2023-01-01T03:59:41.287Z,1.48
2023-01-01T04:02:09.360Z,2.20
2023-01-01T04:04:36.635Z,1.73
2023-01-01T04:07:14.887Z,2.13
2023-01-01T04:09:44.309Z,1.50
2023-01-01T04:12:11.539Z,1.70
2023-01-01T04:14:39.903Z,1.80
2023-01-01T04:17:08.980Z,1.50
2023-01-01T04:19:36.089Z,1.52
2023-01-01T04:22:03.406Z,1.55
2023-01-01T04:24:30.908Z,1.30
2023-01-01T04:26:58.128Z,1.60
2023-01-01T04:29:25.379Z,1.85
2023-01-01T04:31:52.611Z,1.63
2023-01-01T04:34:19.927Z,1.38
2023-01-01T04:36:47.462Z,1.80
2023-01-01T04:39:14.612Z,1.63
2023-01-01T04:41:41.686Z,1.95
2023-01-01T04:44:08.906Z,1.70
2023-01-01T04:46:37.140Z,1.52
2023-01-01T04:49:04.262Z,1.63
2023-01-01T04:51:31.363Z,1.52
2023-01-01T04:54:00.101Z,1.80
2023-01-01T04:56:27.211Z,1.55
2023-01-01T04:58:55.385Z,1.25
2023-01-01T05:01:23.677Z,1.48
2023-01-01T05:03:51.165Z,1.80
2023-01-01T05:06:18.320Z,1.98
2023-01-01T05:08:46.763Z,1.73
2023-01-01T05:11:15.868Z,1.98
2023-01-01T05:13:44.883Z,1.88
2023-01-01T05:16:13.551Z,1.40
2023-01-01T05:18:41.153Z,1.45
2023-01-01T05:21:09.740Z,1.40
2023-01-01T05:23:37.053Z,2.08
2023-01-01T05:26:09.750Z,1.63
2023-01-01T05:28:36.875Z,1.73
2023-01-01T05:31:08.185Z,1.20
2023-01-01T05:33:35.795Z,1.50
2023-01-01T05:36:03.205Z,1.45
2023-01-01T05:38:30.348Z,1.80
2023-01-01T05:40:57.824Z,1.40
2023-01-01T05:43:25.037Z,1.40
2023-01-01T05:46:04.014Z,1.30
2023-01-01T05:48:31.559Z,1.23
2023-01-01T05:51:02.504Z,1.60
2023-01-01T05:53:30.712Z,1.10
2023-01-01T05:55:58.249Z,1.27
2023-01-01T05:58:25.570Z,1.25
2023-01-01T06:00:52.796Z,1.02
2023-01-01T06:03:20.037Z,1.10
2023-01-01T06:05:47.279Z,1.00
2023-01-01T06:08:14.427Z,1.23
2023-01-01T06:10:41.732Z,1.13
2023-01-01T06:13:13.146Z,1.00
2023-01-01T06:15:40.766Z,0.90
2023-01-01T06:18:07.990Z,0.80
2023-01-01T06:20:35.177Z,0.95
2023-01-01T06:23:02.328Z,1.00
2023-01-01T06:25:29.525Z,1.25
2023-01-01T06:27:56.599Z,0.95
2023-01-01T06:30:23.667Z,0.82
2023-01-01T06:32:50.721Z,1.00
2023-01-01T06:35:17.845Z,1.20
2023-01-01T06:37:44.997Z,0.80
2023-01-01T06:40:12.135Z,1.00
2023-01-01T06:42:39.214Z,0.90
2023-01-01T06:45:06.531Z,0.90
2023-01-01T06:47:37.032Z,1.08
2023-01-01T06:52:33.827Z,0.95
2023-01-01T06:55:00.970Z,1.00
2023-01-01T06:57:28.197Z,0.85
2023-01-01T06:59:55.286Z,0.75
2023-01-01T07:02:22.566Z,0.80
2023-01-01T07:04:50.215Z,0.80
2023-01-01T07:07:17.351Z,0.70
2023-01-01T07:09:44.422Z,0.90
2023-01-01T07:12:11.483Z,0.88
2023-01-01T07:14:38.649Z,0.88
2023-01-01T07:17:05.731Z,0.77
2023-01-01T07:19:32.934Z,1.10
2023-01-01T07:22:00.104Z,0.57
2023-01-01T07:24:27.223Z,0.77
2023-01-01T07:26:54.288Z,1.10
2023-01-01T07:29:21.507Z,0.82
2023-01-01T07:31:48.625Z,0.80
2023-01-01T07:34:19.767Z,0.80
2023-01-01T07:36:46.903Z,1.13
2023-01-01T07:39:14.118Z,0.80
2023-01-01T07:41:41.309Z,0.88
2023-01-01T07:44:08.453Z,1.10
2023-01-01T07:46:36.582Z,0.90
2023-01-01T07:49:04.153Z,0.90
2023-01-01T07:51:31.373Z,0.80
2023-01-01T07:54:05.824Z,0.90
2023-01-01T07:56:35.158Z,0.98
2023-01-01T07:59:02.352Z,1.05
2023-01-01T08:01:29.643Z,1.13
2023-01-01T08:03:56.814Z,1.08
2023-01-01T08:06:23.899Z,0.73
2023-01-01T08:08:51.005Z,0.55
2023-01-01T08:11:18.201Z,0.68
2023-01-01T08:13:45.314Z,0.98
2023-01-01T08:16:12.424Z,0.90
2023-01-01T08:18:39.512Z,0.70
2023-01-01T08:21:06.739Z,1.10
2023-01-01T08:23:33.905Z,0.73
2023-01-01T08:26:01.872Z,0.80
2023-01-01T08:28:29.021Z,0.70
2023-01-01T08:30:56.251Z,0.82
2023-01-01T08:33:25.086Z,0.70
2023-01-01T08:35:54.662Z,0.65
2023-01-01T08:38:22.241Z,0.60
2023-01-01T08:40:49.338Z,0.73
2023-01-01T08:43:16.407Z,0.98
2023-01-01T08:45:43.475Z,0.80
2023-01-01T08:48:10.604Z,0.93
2023-01-01T08:50:38.059Z,1.27
2023-01-01T08:53:05.211Z,1.35
2023-01-01T08:55:32.401Z,1.20
2023-01-01T08:57:59.466Z,0.73
2023-01-01T09:00:26.722Z,0.90
2023-01-01T09:02:54.113Z,1.00
2023-01-01T09:05:21.312Z,1.23
2023-01-01T09:07:48.373Z,1.13
2023-01-01T09:10:15.542Z,1.33
2023-01-01T09:12:42.748Z,1.20
2023-01-01T09:15:17.061Z,0.70
2023-01-01T09:17:44.222Z,0.95
2023-01-01T09:20:11.416Z,1.23
2023-01-01T09:22:38.601Z,0.98
2023-01-01T09:25:06.220Z,1.30
2023-01-01T09:27:33.337Z,1.10
2023-01-01T09:30:00.424Z,1.10
2023-01-01T09:32:30.087Z,1.33
2023-01-01T09:34:57.531Z,1.00
2023-01-01T09:37:24.756Z,1.10
2023-01-01T09:39:52.737Z,0.70
2023-01-01T09:42:35.079Z,0.77
2023-01-01T09:45:21.210Z,1.30
2023-01-01T09:47:51.578Z,1.13
2023-01-01T09:50:20.959Z,1.13
2023-01-01T09:53:05.533Z,1.30
2023-01-01T09:55:42.703Z,0.88
2023-01-01T09:58:11.543Z,0.93
2023-01-01T10:00:40.415Z,0.90
2023-01-01T10:03:40.351Z,1.10
2023-01-01T10:06:16.819Z,1.25
2023-01-01T10:09:09.537Z,1.10
2023-01-01T10:11:42.893Z,1.35
2023-01-01T10:14:18.871Z,0.90
2023-01-01T10:16:48.577Z,1.30
2023-01-01T10:19:23.394Z,0.90
2023-01-01T10:21:51.963Z,1.02
2023-01-01T10:24:35.860Z,1.00
2023-01-01T10:27:04.108Z,1.33
2023-01-01T10:29:41.505Z,0.80
2023-01-01T10:32:19.852Z,0.93
2023-01-01T10:34:47.466Z,1.73
2023-01-01T10:37:15.362Z,1.10
2023-01-01T10:39:43.716Z,1.08
2023-01-01T10:42:13.094Z,1.23
2023-01-01T10:44:40.761Z,1.38
2023-01-01T10:47:23.275Z,1.35
2023-01-01T10:49:56.708Z,1.20
2023-01-01T10:52:37.811Z,1.30
2023-01-01T10:55:06.464Z,1.63
2023-01-01T10:57:35.702Z,1.17
2023-01-01T11:00:20.876Z,1.17
2023-01-01T11:02:48.335Z,1.25
2023-01-01T11:05:22.236Z,1.08
2023-01-01T11:07:50.092Z,1.33
2023-01-01T11:10:19.442Z,1.17
2023-01-01T11:13:04.714Z,1.15
2023-01-01T11:15:40.551Z,1.85
2023-01-01T11:18:21.482Z,1.17
2023-01-01T11:20:56.420Z,1.17
2023-01-01T11:23:30.152Z,1.45
2023-01-01T11:26:01.346Z,1.58
2023-01-01T11:28:31.690Z,1.25
2023-01-01T11:31:13.249Z,2.13
2023-01-01T11:33:44.964Z,1.88
2023-01-01T11:36:12.528Z,1.48
2023-01-01T11:38:40.010Z,1.67
2023-01-01T11:41:07.671Z,1.50
2023-01-01T11:43:39.160Z,2.10
2023-01-01T11:46:08.162Z,1.27
2023-01-01T11:48:35.577Z,1.65
2023-01-01T11:51:03.970Z,1.38
2023-01-01T11:53:32.480Z,1.77
2023-01-01T11:56:02.629Z,1.90
2023-01-01T11:58:37.866Z,1.58
2023-01-01T12:01:13.249Z,1.88
2023-01-01T12:03:43.338Z,1.67
2023-01-01T12:06:29.229Z,1.55
2023-01-01T12:08:59.275Z,1.90
2023-01-01T12:11:35.682Z,1.60
2023-01-01T12:14:07.980Z,1.60
2023-01-01T12:16:41.475Z,2.10
2023-01-01T12:19:13.715Z,1.90
2023-01-01T12:21:45.134Z,1.40
2023-01-01T12:24:14.693Z,2.00
2023-01-01T12:27:10.762Z,1.67
2023-01-01T12:29:47.595Z,1.80
2023-01-01T12:32:26.612Z,1.50
2023-01-01T12:34:53.680Z,1.95
2023-01-01T12:37:29.748Z,1.75
2023-01-01T12:39:59.872Z,1.80
2023-01-01T12:42:38.660Z,1.88
2023-01-01T12:45:05.713Z,2.10
2023-01-01T12:47:46.027Z,1.92
2023-01-01T12:50:40.333Z,2.05
2023-01-01T12:53:33.668Z,1.63
2023-01-01T12:56:22.596Z,1.80
2023-01-01T12:59:01.504Z,1.60
2023-01-01T13:01:33.840Z,2.10
2023-01-01T13:04:03.387Z,1.90
2023-01-01T13:06:51.150Z,1.60
2023-01-01T13:09:20.138Z,1.35
2023-01-01T13:11:49.411Z,1.50
2023-01-01T13:14:16.880Z,1.65
2023-01-01T13:16:56.435Z,2.00
2023-01-01T13:19:34.334Z,1.65
2023-01-01T13:22:21.615Z,1.58
2023-01-01T13:25:21.363Z,1.48
2023-01-01T13:27:57.531Z,1.70
2023-01-01T13:30:37.233Z,1.60
2023-01-01T13:33:26.103Z,1.63
2023-01-01T13:36:17.068Z,2.00
2023-01-01T13:38:46.940Z,2.10
2023-01-01T13:41:39.042Z,2.50
2023-01-01T13:44:08.095Z,1.73
2023-01-01T13:46:44.450Z,1.60
2023-01-01T13:49:38.877Z,1.42
2023-01-01T13:52:45.293Z,1.52
2023-01-01T13:55:30.668Z,1.70
2023-01-01T13:57:58.883Z,1.30
2023-01-01T14:00:30.992Z,1.60
2023-01-01T14:03:00.580Z,1.80
2023-01-01T14:05:30.929Z,1.92
2023-01-01T14:07:58.282Z,1.60
2023-01-01T14:10:25.615Z,1.70
2023-01-01T14:12:53.672Z,1.50
2023-01-01T14:15:26.968Z,2.30
2023-01-01T14:17:56.314Z,1.80
2023-01-01T14:20:24.634Z,1.25
2023-01-01T14:22:53.114Z,1.38
2023-01-01T14:25:38.595Z,1.25
2023-01-01T14:28:05.850Z,1.80
2023-01-01T14:30:33.564Z,1.92
2023-01-01T14:33:01.851Z,1.55
2023-01-01T14:35:29.423Z,1.83
2023-01-01T14:37:57.142Z,2.13
2023-01-01T14:40:28.649Z,1.90
2023-01-01T14:42:57.648Z,1.80
2023-01-01T14:45:25.461Z,2.47
2023-01-01T14:47:54.792Z,2.15
2023-01-01T14:50:26.938Z,1.75
2023-01-01T14:52:59.076Z,2.17
2023-01-01T14:55:27.071Z,1.70
2023-01-01T14:57:58.971Z,2.10
2023-01-01T15:00:28.184Z,1.80
2023-01-01T15:02:55.554Z,1.90
2023-01-01T15:05:34.706Z,1.90
2023-01-01T15:08:03.586Z,2.40
2023-01-01T15:10:32.208Z,2.28
2023-01-01T15:12:59.353Z,2.38
2023-01-01T15:15:46.451Z,2.42
2023-01-01T15:18:32.134Z,1.85
2023-01-01T15:23:26.487Z,2.17
2023-01-01T15:25:53.657Z,1.73
2023-01-01T15:28:21.582Z,2.08
2023-01-01T15:30:55.908Z,2.15
2023-01-01T15:33:23.369Z,2.22
2023-01-01T15:35:51.414Z,2.20
2023-01-01T15:38:23.215Z,2.75
2023-01-01T15:40:53.673Z,2.20
2023-01-01T15:43:32.274Z,2.50
2023-01-01T15:46:01.036Z,2.40
2023-01-01T15:48:38.778Z,2.30
2023-01-01T15:51:13.923Z,2.38
2023-01-01T15:53:49.114Z,2.40
2023-01-01T15:56:16.355Z,2.10
2023-01-01T15:59:08.826Z,2.35
2023-01-01T16:01:38.830Z,2.55
2023-01-01T16:04:28.751Z,2.05
2023-01-01T16:06:57.518Z,2.58
2023-01-01T16:09:24.633Z,2.65
2023-01-01T16:11:52.975Z,3.42
2023-01-01T16:14:20.237Z,2.90
2023-01-01T16:16:51.852Z,3.10
2023-01-01T16:19:19.608Z,2.78
2023-01-01T16:21:46.666Z,2.83
2023-01-01T16:24:15.793Z,2.63
2023-01-01T16:26:43.261Z,2.40
2023-01-01T16:29:11.935Z,2.85
2023-01-01T16:31:39.174Z,2.55
2023-01-01T16:34:07.176Z,2.40
2023-01-01T16:36:34.309Z,2.53
2023-01-01T16:39:02.134Z,2.95
2023-01-01T16:41:30.057Z,2.50
2023-01-01T16:43:57.876Z,3.28
2023-01-01T16:46:27.782Z,3.08
2023-01-01T16:48:54.999Z,2.20
2023-01-01T16:51:24.879Z,2.60
2023-01-01T16:53:52.080Z,2.63
2023-01-01T16:56:19.215Z,3.13
2023-01-01T16:58:49.436Z,3.20
2023-01-01T17:01:18.781Z,2.97
2023-01-01T17:03:46.003Z,2.80
2023-01-01T17:06:14.335Z,2.67
2023-01-01T17:08:41.472Z,3.10
2023-01-01T17:11:10.993Z,2.45
2023-01-01T17:13:38.967Z,2.83
2023-01-01T17:16:06.307Z,3.65
2023-01-01T17:19:04.217Z,3.00
2023-01-01T17:21:22.184Z,3.22
2023-01-01T17:23:49.676Z,3.35
2023-01-01T17:26:18.925Z,2.90
2023-01-01T17:28:47.097Z,2.85
2023-01-01T17:31:15.265Z,2.85
2023-01-01T17:33:42.755Z,2.47
2023-01-01T17:36:11.237Z,2.13
2023-01-01T17:38:38.805Z,3.10
2023-01-01T17:41:13.458Z,3.03
2023-01-01T17:43:45.768Z,2.67
2023-01-01T17:46:19.081Z,2.63
2023-01-01T17:48:46.597Z,3.03
2023-01-01T17:51:14.389Z,2.97
2023-01-01T17:53:41.759Z,3.05
2023-01-01T17:56:09.780Z,3.15
2023-01-01T17:58:36.859Z,2.83
2023-01-01T18:01:22.128Z,2.85
2023-01-01T18:03:50.694Z,2.92
2023-01-01T18:06:17.778Z,2.95
2023-01-01T18:08:44.886Z,2.90
2023-01-01T18:11:12.073Z,2.63
2023-01-01T18:13:39.215Z,3.00
2023-01-01T18:16:07.590Z,2.85
2023-01-01T18:18:38.334Z,3.33
2023-01-01T18:21:06.877Z,3.00
2023-01-01T18:23:34.583Z,3.42
2023-01-01T18:26:05.882Z,3.40
2023-01-01T18:28:33.547Z,3.03
2023-01-01T18:31:07.111Z,3.13
2023-01-01T18:33:34.844Z,3.53
2023-01-01T18:36:05.686Z,4.05
2023-01-01T18:38:33.296Z,4.47
2023-01-01T18:41:04.943Z,3.38
2023-01-01T18:43:32.091Z,4.72
2023-01-01T18:45:59.268Z,5.60
2023-01-01T18:48:26.381Z,4.43
2023-01-01T18:50:53.501Z,4.10
2023-01-01T18:53:23.165Z,4.05
2023-01-01T18:55:54.324Z,4.35
2023-01-01T18:58:24.763Z,5.35
2023-01-01T19:00:53.828Z,4.38
2023-01-01T19:03:40.838Z,4.47
2023-01-01T19:06:41.187Z,4.25
2023-01-01T19:09:25.199Z,4.05
2023-01-01T19:11:54.099Z,5.00
2023-01-01T19:14:22.748Z,4.43
2023-01-01T19:16:51.561Z,4.40
2023-01-01T19:19:21.004Z,4.18
2023-01-01T19:21:51.864Z,3.63
2023-01-01T19:24:24.159Z,4.35
2023-01-01T19:26:57.375Z,3.97
2023-01-01T19:29:25.379Z,3.53
2023-01-01T19:31:53.653Z,3.92
2023-01-01T19:34:21.267Z,3.65
2023-01-01T19:36:48.547Z,4.20
2023-01-01T19:39:15.981Z,3.70
2023-01-01T19:41:43.225Z,3.92
2023-01-01T19:44:10.780Z,3.65
2023-01-01T19:46:39.158Z,4.30
2023-01-01T19:49:06.297Z,3.65
2023-01-01T19:51:33.433Z,3.88
2023-01-01T19:54:00.590Z,3.92
2023-01-01T19:56:27.774Z,3.90
2023-01-01T19:58:54.909Z,4.63
2023-01-01T20:01:22.104Z,3.58
2023-01-01T20:03:54.824Z,3.83
2023-01-01T20:06:23.648Z,3.60
2023-01-01T20:08:50.877Z,3.50
2023-01-01T20:11:18.048Z,2.97
2023-01-01T20:13:45.219Z,3.10
2023-01-01T20:16:12.487Z,3.30
2023-01-01T20:18:39.724Z,3.38
2023-01-01T20:21:26.692Z,3.70
2023-01-01T20:23:54.099Z,3.72
2023-01-01T20:26:23.406Z,3.17
2023-01-01T20:29:09.293Z,3.53
2023-01-01T20:31:36.500Z,3.65
2023-01-01T20:34:03.877Z,3.60
2023-01-01T20:36:49.652Z,3.72
2023-01-01T20:41:43.309Z,4.65
2023-01-01T20:44:10.375Z,3.92
2023-01-01T20:46:38.308Z,3.67
2023-01-01T20:49:05.635Z,3.42
2023-01-01T20:51:32.874Z,3.30
2023-01-01T20:54:00.156Z,3.47
2023-01-01T20:56:27.356Z,3.60
2023-01-01T20:58:59.571Z,2.83
2023-01-01T21:01:29.911Z,2.67
2023-01-01T21:03:57.142Z,2.70
2023-01-01T21:06:25.052Z,2.58
2023-01-01T21:08:52.503Z,2.60
2023-01-01T21:11:19.624Z,2.83
2023-01-01T21:13:47.786Z,2.83
2023-01-01T21:16:19.277Z,2.42
2023-01-01T21:18:47.068Z,2.70
2023-01-01T21:21:19.399Z,2.65
2023-01-01T21:23:46.603Z,2.78
2023-01-01T21:26:15.660Z,2.75
2023-01-01T21:28:44.183Z,2.60
2023-01-01T21:31:14.902Z,2.47
2023-01-01T21:33:43.167Z,2.75
2023-01-01T21:36:16.391Z,2.50
2023-01-01T21:38:43.583Z,2.05
2023-01-01T21:41:15.374Z,2.55
2023-01-01T21:43:44.019Z,2.60
2023-01-01T21:46:11.136Z,2.53
2023-01-01T21:48:40.043Z,2.35
2023-01-01T21:51:19.734Z,2.50
2023-01-01T21:53:46.864Z,2.70
2023-01-01T21:56:26.612Z,2.45
2023-01-01T21:59:12.612Z,2.65
2023-01-01T22:01:41.349Z,2.95
2023-01-01T22:04:11.592Z,2.50
2023-01-01T22:06:42.856Z,2.72
2023-01-01T22:09:23.767Z,2.95
2023-01-01T22:11:52.876Z,2.85
2023-01-01T22:14:26.435Z,2.65
2023-01-01T22:16:56.858Z,3.03
2023-01-01T22:19:24.656Z,2.90
2023-01-01T22:21:53.069Z,3.17
2023-01-01T22:24:40.970Z,2.50
2023-01-01T22:27:20.148Z,3.63
2023-01-01T22:29:47.485Z,3.72
2023-01-01T22:32:20.499Z,3.70
2023-01-01T22:37:18.627Z,3.63
2023-01-01T22:39:45.891Z,3.60
2023-01-01T22:42:17.504Z,4.07
2023-01-01T22:44:45.261Z,3.80
2023-01-01T22:47:17.551Z,4.18
2023-01-01T22:49:47.031Z,3.45
2023-01-01T22:52:14.201Z,3.80
2023-01-01T22:54:41.321Z,3.75
2023-01-01T22:57:08.581Z,3.60
2023-01-01T22:59:35.741Z,3.60
2023-01-01T23:02:03.528Z,3.83
2023-01-01T23:04:30.663Z,3.58
2023-01-01T23:06:57.818Z,3.95
2023-01-01T23:09:25.295Z,3.80
2023-01-01T23:11:53.902Z,4.22
2023-01-01T23:14:39.942Z,3.80
2023-01-01T23:17:07.067Z,4.03
2023-01-01T23:19:34.219Z,3.80
2023-01-01T23:22:02.433Z,3.75
2023-01-01T23:24:30.849Z,3.60
2023-01-01T23:26:58.804Z,3.60
2023-01-01T23:29:27.476Z,4.25
2023-01-01T23:31:54.634Z,3.80
2023-01-01T23:34:21.748Z,4.47
2023-01-01T23:36:49.003Z,3.90
2023-01-01T23:39:16.090Z,3.47
2023-01-01T23:41:43.251Z,3.75
2023-01-01T23:44:10.334Z,4.55
2023-01-01T23:46:38.632Z,3.72
2023-01-01T23:49:06.280Z,4.05
2023-01-01T23:51:33.859Z,3.75
2023-01-01T23:54:00.981Z,3.78
2023-01-01T23:56:28.113Z,3.80
2023-01-01T23:58:55.262Z,3.90
